TrOMS Arcturus — LKNL — position and weather

sailwx.info

Track history (hours):
 
Tides and Currents Weather Stations Pressure Air Temp Water Temp Dewpoint Dewpoint Depression Visibility Wind Speed Wind Dir Waves Ship Positions

TrOMS Arcturus

Last reported at 2017-Dec-09 19:51 UTC. Time now 2017-Dec-11 05:42 UTC.
Position N 63°50' E 007°45'.

Length 95 m; draft 6.2 m.

Type: Cargo ship. MMSI: 257131000.

Date/timePositionNaut miles runAvg speedWind from/ knotsBaromVisibWave heightAir tempDewpointWater temp
2017-Dec-09 19:51N 63°50' E 007°45'3 9.8
2017-Dec-09 19:30N 63°47' E 007°46'611.4
2017-Dec-09 19:00N 63°41' E 007°43'611.9
2017-Dec-09 18:29N 63°36' E 007°36'510.6
2017-Dec-09 18:00N 63°31' E 007°34'510.1
2017-Dec-09 17:30N 63°26' E 007°35'510.7
2017-Dec-09 17:00N 63°20' E 007°36'4 8.7
2017-Dec-09 16:30N 63°16' E 007°38'4 8.0
2017-Dec-09 16:00N 63°13' E 007°44'4 8.7
2017-Dec-09 15:30N 63°09' E 007°42'3 6.8
2017-Dec-09 15:00N 63°06' E 007°44'1 2.6
2017-Dec-09 14:30N 63°06' E 007°47'0 0.0
2017-Dec-09 14:00N 63°06' E 007°47'0 0.0
2017-Dec-09 13:29N 63°06' E 007°47'0 0.0
2017-Dec-09 12:59N 63°06' E 007°47'0 0.0
2017-Dec-09 12:28N 63°06' E 007°47'0 0.0
2017-Dec-09 11:58N 63°06' E 007°47'0 0.0
2017-Dec-09 11:28N 63°06' E 007°47'0 0.0
2017-Dec-09 10:59N 63°06' E 007°47'0 0.0
2017-Dec-09 10:29N 63°06' E 007°47'0 0.0
2017-Dec-09 09:58N 63°06' E 007°47'0 0.0
2017-Dec-09 09:30N 63°06' E 007°47'0 0.6
2017-Dec-09 09:00N 63°06' E 007°48'0 0.0
2017-Dec-09 08:29N 63°06' E 007°48'0 0.0
2017-Dec-09 07:59N 63°06' E 007°48'0 0.0
2017-Dec-09 07:29N 63°06' E 007°48'0 0.0
2017-Dec-09 06:59N 63°06' E 007°48'0 0.0
2017-Dec-09 06:29N 63°06' E 007°48'0 0.0
2017-Dec-09 05:59N 63°06' E 007°48'0 0.0
2017-Dec-09 05:29N 63°06' E 007°48'0 0.0
2017-Dec-09 04:59N 63°06' E 007°48'0 0.0
2017-Dec-09 04:29N 63°06' E 007°48'0 0.0
2017-Dec-09 03:59N 63°06' E 007°48'0 0.0
2017-Dec-09 03:29N 63°06' E 007°48'0 0.0
2017-Dec-09 02:59N 63°06' E 007°48'0 0.0
2017-Dec-09 02:29N 63°06' E 007°48'0 0.0
2017-Dec-09 01:59N 63°06' E 007°48'0 0.0
2017-Dec-09 01:29N 63°06' E 007°48'0 0.0
2017-Dec-09 00:59N 63°06' E 007°48'0 0.0
2017-Dec-09 00:29N 63°06' E 007°48'0 0.0
2017-Dec-08 23:59N 63°06' E 007°48'0 0.0
2017-Dec-08 23:29N 63°06' E 007°48'0 0.0
2017-Dec-08 22:59N 63°06' E 007°48'0 0.0
2017-Dec-08 22:29N 63°06' E 007°48'0 0.0
2017-Dec-08 21:59N 63°06' E 007°48'0 0.0
2017-Dec-08 21:29N 63°06' E 007°48'0 0.0
2017-Dec-08 20:59N 63°06' E 007°48'0 0.0
2017-Dec-08 20:29N 63°06' E 007°48'0 0.0
2017-Dec-08 19:59N 63°06' E 007°48'0 0.0
2017-Dec-08 19:29N 63°06' E 007°48'0 0.0
2017-Dec-08 18:59N 63°06' E 007°48'0 0.0
2017-Dec-08 18:29N 63°06' E 007°48'0 0.0
2017-Dec-08 17:59N 63°06' E 007°48'0 0.0
2017-Dec-08 17:29N 63°06' E 007°48'0 0.0
2017-Dec-08 16:59N 63°06' E 007°48'0 0.0
2017-Dec-08 16:29N 63°06' E 007°48'0 0.0
2017-Dec-08 15:59N 63°06' E 007°48'0 0.0
2017-Dec-08 15:29N 63°06' E 007°48'0 0.0
2017-Dec-08 14:59N 63°06' E 007°48'0 0.0
2017-Dec-08 14:29N 63°06' E 007°48'0 0.0
2017-Dec-08 13:59N 63°06' E 007°48'0 0.0
2017-Dec-08 13:29N 63°06' E 007°48'0 0.0
2017-Dec-08 12:59N 63°06' E 007°48'0 0.0
2017-Dec-08 12:29N 63°06' E 007°48'0 0.0
2017-Dec-08 11:59N 63°06' E 007°48'0 0.0
2017-Dec-08 11:29N 63°06' E 007°48'0 0.0
2017-Dec-08 10:59N 63°06' E 007°48'0 0.0
2017-Dec-08 10:29N 63°06' E 007°48'0 0.6
2017-Dec-08 09:59N 63°06' E 007°47'0 0.0
2017-Dec-08 09:29N 63°06' E 007°47'0 0.0
2017-Dec-08 08:59N 63°06' E 007°47'0 0.0
2017-Dec-08 08:29N 63°06' E 007°47'0 0.0
2017-Dec-08 07:59N 63°06' E 007°47'0 0.0
2017-Dec-08 07:29N 63°06' E 007°47'0 0.0
2017-Dec-08 06:59N 63°06' E 007°47'0 0.0
2017-Dec-08 06:29N 63°06' E 007°47'0 0.0
2017-Dec-08 05:59N 63°06' E 007°47'0 0.0
2017-Dec-08 05:29N 63°06' E 007°47'0 0.0
2017-Dec-08 04:59N 63°06' E 007°47'0 0.0
2017-Dec-08 04:29N 63°06' E 007°47'0 0.0
2017-Dec-08 03:59N 63°06' E 007°47'0 0.0
2017-Dec-08 03:29N 63°06' E 007°47'0 0.0
2017-Dec-08 02:59N 63°06' E 007°47'0 0.0
2017-Dec-08 02:29N 63°06' E 007°47'0 0.0
2017-Dec-08 01:59N 63°06' E 007°47'0 0.0
2017-Dec-08 01:29N 63°06' E 007°47'0 0.0
2017-Dec-08 00:59N 63°06' E 007°47'0 0.0
2017-Dec-08 00:29N 63°06' E 007°47'0 0.0
2017-Dec-07 23:59N 63°06' E 007°47'0 0.0
2017-Dec-07 23:29N 63°06' E 007°47'0 0.0
2017-Dec-07 22:59N 63°06' E 007°47'0 0.0
2017-Dec-07 22:29N 63°06' E 007°47'0 0.0
2017-Dec-07 21:59N 63°06' E 007°47'0 0.0
2017-Dec-07 21:29N 63°06' E 007°47'0 0.0
2017-Dec-07 20:59N 63°06' E 007°47'0 0.0
2017-Dec-07 20:29N 63°06' E 007°47'1 2.4
2017-Dec-07 20:00N 63°06' E 007°45'4 7.7
2017-Dec-07 19:30N 63°10' E 007°43'4 9.0
2017-Dec-07 19:00N 63°14' E 007°40'510.2
2017-Dec-07 18:30N 63°19' E 007°36'611.1
2017-Dec-07 18:00N 63°24' E 007°37'611.1
2017-Dec-07 17:30N 63°30' E 007°38'611.1
2017-Dec-07 17:00N 63°35' E 007°40'510.5
2017-Dec-07 16:30N 63°40' E 007°42'510.2
2017-Dec-07 15:59N 63°46' E 007°43'  
2017-Dec-03 16:35N 63°48' E 007°41'111.0
2017-Dec-03 16:30N 63°47' E 007°41'611.6
2017-Dec-03 16:00N 63°41' E 007°39'611.3
2017-Dec-03 15:30N 63°36' E 007°38'611.4
2017-Dec-03 15:00N 63°30' E 007°36'611.1
2017-Dec-03 14:30N 63°24' E 007°35'5 9.5
2017-Dec-03 14:00N 63°20' E 007°36'4 8.9
2017-Dec-03 13:30N 63°16' E 007°40'4 9.0
2017-Dec-03 13:00N 63°12' E 007°45'510.0
2017-Dec-03 12:30N 63°07' E 007°41'3 6.4
2017-Dec-03 12:00N 63°06' E 007°47'0 0.1
2017-Dec-03 11:30N 63°06' E 007°47'0 0.0
2017-Dec-03 10:59N 63°06' E 007°47'0 0.0
2017-Dec-03 10:29N 63°06' E 007°47'0 0.0
2017-Dec-03 09:59N 63°06' E 007°47'0 0.0
2017-Dec-03 09:29N 63°06' E 007°47'0 0.0
2017-Dec-03 08:59N 63°06' E 007°47'0 0.0
2017-Dec-03 08:29N 63°06' E 007°47'0 0.0
2017-Dec-03 07:59N 63°06' E 007°47'0 0.0
2017-Dec-03 07:29N 63°06' E 007°47'0 0.0
2017-Dec-03 06:59N 63°06' E 007°47'0 0.0
2017-Dec-03 06:29N 63°06' E 007°47'0 0.0
2017-Dec-03 05:59N 63°06' E 007°47'0 0.0
2017-Dec-03 05:29N 63°06' E 007°47'0 0.0
2017-Dec-03 04:59N 63°06' E 007°47'0 0.0
2017-Dec-03 04:29N 63°06' E 007°47'0 0.0
2017-Dec-03 03:59N 63°06' E 007°47'0 0.2
2017-Dec-03 03:30N 63°06' E 007°47'3 6.5
2017-Dec-03 03:00N 63°08' E 007°41'5 9.1
2017-Dec-03 02:30N 63°11' E 007°47'4 8.9
2017-Dec-03 02:00N 63°13' E 007°56'4 8.9
2017-Dec-03 01:30N 63°16' E 008°04'5 9.7
2017-Dec-03 01:00N 63°18' E 008°14'5 9.7
2017-Dec-03 00:30N 63°21' E 008°22'5 9.6
2017-Dec-03 00:00N 63°24' E 008°31'5 9.3
2017-Dec-02 23:30N 63°26' E 008°41'5 9.1
2017-Dec-02 23:00N 63°27' E 008°50'4 8.9
2017-Dec-02 22:30N 63°29' E 008°59'4 8.6
2017-Dec-02 22:00N 63°31' E 009°08'4 8.2
2017-Dec-02 21:30N 63°33' E 009°16'510.4
2017-Dec-02 21:00N 63°38' E 009°16'510.2
2017-Dec-02 20:30N 63°43' E 009°15'510.1
2017-Dec-02 20:00N 63°48' E 009°16'5 9.8
2017-Dec-02 19:30N 63°53' E 009°20'5 9.9
2017-Dec-02 19:00N 63°57' E 009°25'510.0
2017-Dec-02 18:30N 64°02' E 009°31'612.5
2017-Dec-02 18:00N 64°07' E 009°37'612.1
2017-Dec-02 17:30N 64°13' E 009°40'64 1.4
2017-Nov-30 19:51N 63°42' E 007°31'3 9.2
2017-Nov-30 19:30N 63°39' E 007°32'5 9.5
2017-Nov-30 19:00N 63°35' E 007°33'5 9.5
2017-Nov-30 18:30N 63°30' E 007°34'4 8.6
2017-Nov-30 18:00N 63°26' E 007°35'5 9.1
2017-Nov-30 17:30N 63°21' E 007°36'5 9.2
2017-Nov-30 17:00N 63°17' E 007°36'4 8.4
2017-Nov-30 16:30N 63°14' E 007°43'4 7.2
2017-Nov-30 16:00N 63°10' E 007°43'4 8.1
2017-Nov-30 15:30N 63°06' E 007°43'2 4.0
2017-Nov-30 15:00N 63°06' E 007°47'0 0.0
2017-Nov-30 14:28N 63°06' E 007°47'0 0.0
2017-Nov-30 13:58N 63°06' E 007°47'0 0.0
2017-Nov-30 13:28N 63°06' E 007°47'0 0.0
2017-Nov-30 12:58N 63°06' E 007°47'0 0.0
2017-Nov-30 12:28N 63°06' E 007°47'0 0.0
2017-Nov-30 11:58N 63°06' E 007°47'0 0.0
2017-Nov-30 11:28N 63°06' E 007°47'0 0.0
2017-Nov-30 10:58N 63°06' E 007°47'0 0.0
2017-Nov-30 10:28N 63°06' E 007°47'0 0.0
2017-Nov-30 09:58N 63°06' E 007°47'0 0.0
2017-Nov-30 09:31N 63°06' E 007°47'3 5.4
2017-Nov-30 09:00N 63°06' E 007°41'4 8.7
2017-Nov-30 08:31N 63°10' E 007°43'4 7.6
2017-Nov-30 08:01N 63°14' E 007°41'5 9.0
2017-Nov-30 07:30N 63°18' E 007°36'5 9.8
2017-Nov-30 07:01N 63°22' E 007°34'5 9.5
2017-Nov-30 06:31N 63°27' E 007°32'5 9.1
2017-Nov-30 06:00N 63°32' E 007°30'5 9.1
2017-Nov-30 05:30N 63°36' E 007°27'  
Track history (hours):
 
Tides and Currents Weather Stations Pressure Air Temp Water Temp Dewpoint Dewpoint Depression Visibility Wind Speed Wind Dir Waves Ship Positions

TrOMS Arcturus

Last reported at 2017-Dec-09 19:51 UTC. Time now 2017-Dec-11 05:42 UTC.
Position N 63°50' E 007°45'.

Length 95 m; draft 6.2 m.

Type: Cargo ship. MMSI: 257131000.

Date/timePositionNaut miles runAvg speedWind from/ knotsBaromVisibWave heightAir tempDewpointWater temp
2017-Dec-09 19:51N 63°50' E 007°45'3 9.8
2017-Dec-09 19:30N 63°47' E 007°46'611.4
2017-Dec-09 19:00N 63°41' E 007°43'611.9
2017-Dec-09 18:29N 63°36' E 007°36'510.6
2017-Dec-09 18:00N 63°31' E 007°34'510.1
2017-Dec-09 17:30N 63°26' E 007°35'510.7
2017-Dec-09 17:00N 63°20' E 007°36'4 8.7
2017-Dec-09 16:30N 63°16' E 007°38'4 8.0
2017-Dec-09 16:00N 63°13' E 007°44'4 8.7
2017-Dec-09 15:30N 63°09' E 007°42'3 6.8
2017-Dec-09 15:00N 63°06' E 007°44'1 2.6
2017-Dec-09 14:30N 63°06' E 007°47'0 0.0
2017-Dec-09 14:00N 63°06' E 007°47'0 0.0
2017-Dec-09 13:29N 63°06' E 007°47'0 0.0
2017-Dec-09 12:59N 63°06' E 007°47'0 0.0
2017-Dec-09 12:28N 63°06' E 007°47'0 0.0
2017-Dec-09 11:58N 63°06' E 007°47'0 0.0
2017-Dec-09 11:28N 63°06' E 007°47'0 0.0
2017-Dec-09 10:59N 63°06' E 007°47'0 0.0
2017-Dec-09 10:29N 63°06' E 007°47'0 0.0
2017-Dec-09 09:58N 63°06' E 007°47'0 0.0
2017-Dec-09 09:30N 63°06' E 007°47'0 0.6
2017-Dec-09 09:00N 63°06' E 007°48'0 0.0
2017-Dec-09 08:29N 63°06' E 007°48'0 0.0
2017-Dec-09 07:59N 63°06' E 007°48'0 0.0
2017-Dec-09 07:29N 63°06' E 007°48'0 0.0
2017-Dec-09 06:59N 63°06' E 007°48'0 0.0
2017-Dec-09 06:29N 63°06' E 007°48'0 0.0
2017-Dec-09 05:59N 63°06' E 007°48'0 0.0
2017-Dec-09 05:29N 63°06' E 007°48'0 0.0
2017-Dec-09 04:59N 63°06' E 007°48'0 0.0
2017-Dec-09 04:29N 63°06' E 007°48'0 0.0
2017-Dec-09 03:59N 63°06' E 007°48'0 0.0
2017-Dec-09 03:29N 63°06' E 007°48'0 0.0
2017-Dec-09 02:59N 63°06' E 007°48'0 0.0
2017-Dec-09 02:29N 63°06' E 007°48'0 0.0
2017-Dec-09 01:59N 63°06' E 007°48'0 0.0
2017-Dec-09 01:29N 63°06' E 007°48'0 0.0
2017-Dec-09 00:59N 63°06' E 007°48'0 0.0
2017-Dec-09 00:29N 63°06' E 007°48'0 0.0
2017-Dec-08 23:59N 63°06' E 007°48'0 0.0
2017-Dec-08 23:29N 63°06' E 007°48'0 0.0
2017-Dec-08 22:59N 63°06' E 007°48'0 0.0
2017-Dec-08 22:29N 63°06' E 007°48'0 0.0
2017-Dec-08 21:59N 63°06' E 007°48'0 0.0
2017-Dec-08 21:29N 63°06' E 007°48'0 0.0
2017-Dec-08 20:59N 63°06' E 007°48'0 0.0
2017-Dec-08 20:29N 63°06' E 007°48'0 0.0
2017-Dec-08 19:59N 63°06' E 007°48'0 0.0
2017-Dec-08 19:29N 63°06' E 007°48'0 0.0
2017-Dec-08 18:59N 63°06' E 007°48'0 0.0
2017-Dec-08 18:29N 63°06' E 007°48'0 0.0
2017-Dec-08 17:59N 63°06' E 007°48'0 0.0
2017-Dec-08 17:29N 63°06' E 007°48'0 0.0
2017-Dec-08 16:59N 63°06' E 007°48'0 0.0
2017-Dec-08 16:29N 63°06' E 007°48'0 0.0
2017-Dec-08 15:59N 63°06' E 007°48'0 0.0
2017-Dec-08 15:29N 63°06' E 007°48'0 0.0
2017-Dec-08 14:59N 63°06' E 007°48'0 0.0
2017-Dec-08 14:29N 63°06' E 007°48'0 0.0
2017-Dec-08 13:59N 63°06' E 007°48'0 0.0
2017-Dec-08 13:29N 63°06' E 007°48'0 0.0
2017-Dec-08 12:59N 63°06' E 007°48'0 0.0
2017-Dec-08 12:29N 63°06' E 007°48'0 0.0
2017-Dec-08 11:59N 63°06' E 007°48'0 0.0
2017-Dec-08 11:29N 63°06' E 007°48'0 0.0
2017-Dec-08 10:59N 63°06' E 007°48'0 0.0
2017-Dec-08 10:29N 63°06' E 007°48'0 0.6
2017-Dec-08 09:59N 63°06' E 007°47'0 0.0
2017-Dec-08 09:29N 63°06' E 007°47'0 0.0
2017-Dec-08 08:59N 63°06' E 007°47'0 0.0
2017-Dec-08 08:29N 63°06' E 007°47'0 0.0
2017-Dec-08 07:59N 63°06' E 007°47'0 0.0
2017-Dec-08 07:29N 63°06' E 007°47'0 0.0
2017-Dec-08 06:59N 63°06' E 007°47'0 0.0
2017-Dec-08 06:29N 63°06' E 007°47'0 0.0
2017-Dec-08 05:59N 63°06' E 007°47'0 0.0
2017-Dec-08 05:29N 63°06' E 007°47'0 0.0
2017-Dec-08 04:59N 63°06' E 007°47'0 0.0
2017-Dec-08 04:29N 63°06' E 007°47'0 0.0
2017-Dec-08 03:59N 63°06' E 007°47'0 0.0
2017-Dec-08 03:29N 63°06' E 007°47'0 0.0
2017-Dec-08 02:59N 63°06' E 007°47'0 0.0
2017-Dec-08 02:29N 63°06' E 007°47'0 0.0
2017-Dec-08 01:59N 63°06' E 007°47'0 0.0
2017-Dec-08 01:29N 63°06' E 007°47'0 0.0
2017-Dec-08 00:59N 63°06' E 007°47'0 0.0
2017-Dec-08 00:29N 63°06' E 007°47'0 0.0
2017-Dec-07 23:59N 63°06' E 007°47'0 0.0
2017-Dec-07 23:29N 63°06' E 007°47'0 0.0
2017-Dec-07 22:59N 63°06' E 007°47'0 0.0
2017-Dec-07 22:29N 63°06' E 007°47'0 0.0
2017-Dec-07 21:59N 63°06' E 007°47'0 0.0
2017-Dec-07 21:29N 63°06' E 007°47'0 0.0
2017-Dec-07 20:59N 63°06' E 007°47'0 0.0
2017-Dec-07 20:29N 63°06' E 007°47'1 2.4
2017-Dec-07 20:00N 63°06' E 007°45'4 7.7
2017-Dec-07 19:30N 63°10' E 007°43'4 9.0
2017-Dec-07 19:00N 63°14' E 007°40'510.2
2017-Dec-07 18:30N 63°19' E 007°36'611.1
2017-Dec-07 18:00N 63°24' E 007°37'611.1
2017-Dec-07 17:30N 63°30' E 007°38'611.1
2017-Dec-07 17:00N 63°35' E 007°40'510.5
2017-Dec-07 16:30N 63°40' E 007°42'510.2
2017-Dec-07 15:59N 63°46' E 007°43'  
2017-Dec-03 16:35N 63°48' E 007°41'111.0
2017-Dec-03 16:30N 63°47' E 007°41'611.6
2017-Dec-03 16:00N 63°41' E 007°39'611.3
2017-Dec-03 15:30N 63°36' E 007°38'611.4
2017-Dec-03 15:00N 63°30' E 007°36'611.1
2017-Dec-03 14:30N 63°24' E 007°35'5 9.5
2017-Dec-03 14:00N 63°20' E 007°36'4 8.9
2017-Dec-03 13:30N 63°16' E 007°40'4 9.0
2017-Dec-03 13:00N 63°12' E 007°45'510.0
2017-Dec-03 12:30N 63°07' E 007°41'3 6.4
2017-Dec-03 12:00N 63°06' E 007°47'0 0.1
2017-Dec-03 11:30N 63°06' E 007°47'0 0.0
2017-Dec-03 10:59N 63°06' E 007°47'0 0.0
2017-Dec-03 10:29N 63°06' E 007°47'0 0.0
2017-Dec-03 09:59N 63°06' E 007°47'0 0.0
2017-Dec-03 09:29N 63°06' E 007°47'0 0.0
2017-Dec-03 08:59N 63°06' E 007°47'0 0.0
2017-Dec-03 08:29N 63°06' E 007°47'0 0.0
2017-Dec-03 07:59N 63°06' E 007°47'0 0.0
2017-Dec-03 07:29N 63°06' E 007°47'0 0.0
2017-Dec-03 06:59N 63°06' E 007°47'0 0.0
2017-Dec-03 06:29N 63°06' E 007°47'0 0.0
2017-Dec-03 05:59N 63°06' E 007°47'0 0.0
2017-Dec-03 05:29N 63°06' E 007°47'0 0.0
2017-Dec-03 04:59N 63°06' E 007°47'0 0.0
2017-Dec-03 04:29N 63°06' E 007°47'0 0.0
2017-Dec-03 03:59N 63°06' E 007°47'0 0.2
2017-Dec-03 03:30N 63°06' E 007°47'3 6.5
2017-Dec-03 03:00N 63°08' E 007°41'5 9.1
2017-Dec-03 02:30N 63°11' E 007°47'4 8.9
2017-Dec-03 02:00N 63°13' E 007°56'4 8.9
2017-Dec-03 01:30N 63°16' E 008°04'5 9.7
2017-Dec-03 01:00N 63°18' E 008°14'5 9.7
2017-Dec-03 00:30N 63°21' E 008°22'5 9.6
2017-Dec-03 00:00N 63°24' E 008°31'5 9.3
2017-Dec-02 23:30N 63°26' E 008°41'5 9.1
2017-Dec-02 23:00N 63°27' E 008°50'4 8.9
2017-Dec-02 22:30N 63°29' E 008°59'4 8.6
2017-Dec-02 22:00N 63°31' E 009°08'4 8.2
2017-Dec-02 21:30N 63°33' E 009°16'510.4
2017-Dec-02 21:00N 63°38' E 009°16'510.2
2017-Dec-02 20:30N 63°43' E 009°15'510.1
2017-Dec-02 20:00N 63°48' E 009°16'5 9.8
2017-Dec-02 19:30N 63°53' E 009°20'5 9.9
2017-Dec-02 19:00N 63°57' E 009°25'510.0
2017-Dec-02 18:30N 64°02' E 009°31'612.5
2017-Dec-02 18:00N 64°07' E 009°37'612.1
2017-Dec-02 17:30N 64°13' E 009°40'64 1.4
2017-Nov-30 19:51N 63°42' E 007°31'3 9.2
2017-Nov-30 19:30N 63°39' E 007°32'5 9.5
2017-Nov-30 19:00N 63°35' E 007°33'5 9.5
2017-Nov-30 18:30N 63°30' E 007°34'4 8.6
2017-Nov-30 18:00N 63°26' E 007°35'5 9.1
2017-Nov-30 17:30N 63°21' E 007°36'5 9.2
2017-Nov-30 17:00N 63°17' E 007°36'4 8.4
2017-Nov-30 16:30N 63°14' E 007°43'4 7.2
2017-Nov-30 16:00N 63°10' E 007°43'4 8.1
2017-Nov-30 15:30N 63°06' E 007°43'2 4.0
2017-Nov-30 15:00N 63°06' E 007°47'0 0.0
2017-Nov-30 14:28N 63°06' E 007°47'0 0.0
2017-Nov-30 13:58N 63°06' E 007°47'0 0.0
2017-Nov-30 13:28N 63°06' E 007°47'0 0.0
2017-Nov-30 12:58N 63°06' E 007°47'0 0.0
2017-Nov-30 12:28N 63°06' E 007°47'0 0.0
2017-Nov-30 11:58N 63°06' E 007°47'0 0.0
2017-Nov-30 11:28N 63°06' E 007°47'0 0.0
2017-Nov-30 10:58N 63°06' E 007°47'0 0.0
2017-Nov-30 10:28N 63°06' E 007°47'0 0.0
2017-Nov-30 09:58N 63°06' E 007°47'0 0.0
2017-Nov-30 09:31N 63°06' E 007°47'3 5.4
2017-Nov-30 09:00N 63°06' E 007°41'4 8.7
2017-Nov-30 08:31N 63°10' E 007°43'4 7.6
2017-Nov-30 08:01N 63°14' E 007°41'5 9.0
2017-Nov-30 07:30N 63°18' E 007°36'5 9.8
2017-Nov-30 07:01N 63°22' E 007°34'5 9.5
2017-Nov-30 06:31N 63°27' E 007°32'5 9.1
2017-Nov-30 06:00N 63°32' E 007°30'5 9.1
2017-Nov-30 05:30N 63°36' E 007°27'  

Dump ship's entire track history